sensor_id;sensor_type;location;lat;lon;timestamp;temperature;humidity
11540;DHT22;5826;54.756;9.192;2022-12-18T00:02:00;-2.60;99.90
11540;DHT22;5826;54.756;9.192;2022-12-18T00:04:26;-2.60;99.90
11540;DHT22;5826;54.756;9.192;2022-12-18T00:06:52;-2.60;99.90
11540;DHT22;5826;54.756;9.192;2022-12-18T00:09:18;-2.50;99.90
11540;DHT22;5826;54.756;9.192;2022-12-18T00:11:44;-2.50;99.90
11540;DHT22;5826;54.756;9.192;2022-12-18T00:14:11;-2.60;99.90
11540;DHT22;5826;54.756;9.192;2022-12-18T00:16:37;-2.50;99.90
11540;DHT22;5826;54.756;9.192;2022-12-18T00:19:03;-2.50;99.90
11540;DHT22;5826;54.756;9.192;2022-12-18T00:21:31;-2.50;99.90
11540;DHT22;5826;54.756;9.192;2022-12-18T00:23:58;-2.50;99.90
11540;DHT22;5826;54.756;9.192;2022-12-18T00:26:32;-2.50;99.90
11540;DHT22;5826;54.756;9.192;2022-12-18T00:29:09;-2.50;99.90
11540;DHT22;5826;54.756;9.192;2022-12-18T00:31:35;-2.10;99.90
11540;DHT22;5826;54.756;9.192;2022-12-18T00:34:01;-2.50;99.90
11540;DHT22;5826;54.756;9.192;2022-12-18T00:36:29;-2.50;99.90
11540;DHT22;5826;54.756;9.192;2022-12-18T00:38:58;-2.50;99.90
11540;DHT22;5826;54.756;9.192;2022-12-18T00:41:25;-2.60;99.90
11540;DHT22;5826;54.756;9.192;2022-12-18T00:44:11;-2.60;99.90
11540;DHT22;5826;54.756;9.192;2022-12-18T00:46:37;-2.60;99.90
11540;DHT22;5826;54.756;9.192;2022-12-18T00:49:03;-2.60;99.90
11540;DHT22;5826;54.756;9.192;2022-12-18T00:51:29;-2.60;99.90
11540;DHT22;5826;54.756;9.192;2022-12-18T00:53:54;-2.70;99.90
11540;DHT22;5826;54.756;9.192;2022-12-18T00:56:20;-2.70;99.90
11540;DHT22;5826;54.756;9.192;2022-12-18T00:58:49;-2.80;99.90
11540;DHT22;5826;54.756;9.192;2022-12-18T01:01:14;-2.80;99.90
11540;DHT22;5826;54.756;9.192;2022-12-18T01:03:40;-2.50;99.90
11540;DHT22;5826;54.756;9.192;2022-12-18T01:06:10;-2.90;99.90
11540;DHT22;5826;54.756;9.192;2022-12-18T01:08:37;-2.90;99.90
11540;DHT22;5826;54.756;9.192;2022-12-18T01:11:11;-2.90;99.90
11540;DHT22;5826;54.756;9.192;2022-12-18T01:13:37;-2.80;99.90
11540;DHT22;5826;54.756;9.192;2022-12-18T01:16:03;-2.80;99.90
11540;DHT22;5826;54.756;9.192;2022-12-18T01:18:28;-2.70;99.90
11540;DHT22;5826;54.756;9.192;2022-12-18T01:20:54;-2.70;99.90
11540;DHT22;5826;54.756;9.192;2022-12-18T01:23:19;-2.70;99.90
11540;DHT22;5826;54.756;9.192;2022-12-18T01:25:45;-2.70;99.90
11540;DHT22;5826;54.756;9.192;2022-12-18T01:28:10;-2.70;99.90
11540;DHT22;5826;54.756;9.192;2022-12-18T01:30:36;-2.70;99.90
11540;DHT22;5826;54.756;9.192;2022-12-18T01:33:04;-2.70;99.90
11540;DHT22;5826;54.756;9.192;2022-12-18T01:35:30;-2.70;99.90
11540;DHT22;5826;54.756;9.192;2022-12-18T01:37:55;-2.70;99.90
11540;DHT22;5826;54.756;9.192;2022-12-18T01:40:21;-2.80;99.90
11540;DHT22;5826;54.756;9.192;2022-12-18T01:42:53;-2.80;99.90
11540;DHT22;5826;54.756;9.192;2022-12-18T01:48:07;-2.80;99.90
11540;DHT22;5826;54.756;9.192;2022-12-18T01:50:40;-2.80;99.90
11540;DHT22;5826;54.756;9.192;2022-12-18T01:53:11;-2.70;99.90
11540;DHT22;5826;54.756;9.192;2022-12-18T01:55:44;-2.60;99.90
11540;DHT22;5826;54.756;9.192;2022-12-18T01:58:12;-2.70;99.90
11540;DHT22;5826;54.756;9.192;2022-12-18T02:00:38;-2.70;99.90
11540;DHT22;5826;54.756;9.192;2022-12-18T02:03:03;-2.70;99.90
11540;DHT22;5826;54.756;9.192;2022-12-18T02:05:47;-2.70;99.90
11540;DHT22;5826;54.756;9.192;2022-12-18T02:13:43;-2.70;99.90
11540;DHT22;5826;54.756;9.192;2022-12-18T02:16:39;-2.60;99.90
11540;DHT22;5826;54.756;9.192;2022-12-18T02:19:26;-2.60;99.90
11540;DHT22;5826;54.756;9.192;2022-12-18T02:22:20;-2.50;99.90
11540;DHT22;5826;54.756;9.192;2022-12-18T02:24:54;-2.40;99.90
11540;DHT22;5826;54.756;9.192;2022-12-18T02:27:24;-2.40;99.90
11540;DHT22;5826;54.756;9.192;2022-12-18T02:29:53;-2.30;99.90
11540;DHT22;5826;54.756;9.192;2022-12-18T02:32:24;-2.30;99.90
11540;DHT22;5826;54.756;9.192;2022-12-18T02:34:51;-2.20;99.90
11540;DHT22;5826;54.756;9.192;2022-12-18T02:37:18;-2.20;99.90
11540;DHT22;5826;54.756;9.192;2022-12-18T02:39:46;-2.20;99.90
11540;DHT22;5826;54.756;9.192;2022-12-18T02:42:12;-2.10;99.90
11540;DHT22;5826;54.756;9.192;2022-12-18T02:44:46;-2.20;99.90
11540;DHT22;5826;54.756;9.192;2022-12-18T02:47:13;-2.20;99.90
11540;DHT22;5826;54.756;9.192;2022-12-18T02:52:35;-2.20;99.90
11540;DHT22;5826;54.756;9.192;2022-12-18T02:57:50;-2.10;99.90
11540;DHT22;5826;54.756;9.192;2022-12-18T03:00:30;-2.10;99.90
11540;DHT22;5826;54.756;9.192;2022-12-18T03:05:40;-2.10;99.90
11540;DHT22;5826;54.756;9.192;2022-12-18T03:08:17;-2.00;99.90
11540;DHT22;5826;54.756;9.192;2022-12-18T03:11:11;-2.00;99.90
11540;DHT22;5826;54.756;9.192;2022-12-18T03:13:39;-2.00;99.90
11540;DHT22;5826;54.756;9.192;2022-12-18T03:16:08;-1.40;99.90
11540;DHT22;5826;54.756;9.192;2022-12-18T03:18:46;-2.10;99.90
11540;DHT22;5826;54.756;9.192;2022-12-18T03:21:14;-2.00;99.90
11540;DHT22;5826;54.756;9.192;2022-12-18T03:23:44;-2.00;99.90
11540;DHT22;5826;54.756;9.192;2022-12-18T03:26:15;-2.10;99.90
11540;DHT22;5826;54.756;9.192;2022-12-18T03:28:52;-2.10;99.90
11540;DHT22;5826;54.756;9.192;2022-12-18T03:31:20;-2.10;99.90
11540;DHT22;5826;54.756;9.192;2022-12-18T03:36:17;-2.10;99.90
11540;DHT22;5826;54.756;9.192;2022-12-18T03:38:42;-2.10;99.90
11540;DHT22;5826;54.756;9.192;2022-12-18T03:44:23;-2.10;99.90
11540;DHT22;5826;54.756;9.192;2022-12-18T03:47:08;-2.10;99.90
11540;DHT22;5826;54.756;9.192;2022-12-18T03:49:38;-2.10;99.90
11540;DHT22;5826;54.756;9.192;2022-12-18T03:54:34;-2.20;99.90
11540;DHT22;5826;54.756;9.192;2022-12-18T03:57:06;-2.20;99.90
11540;DHT22;5826;54.756;9.192;2022-12-18T03:59:33;-2.30;99.90
11540;DHT22;5826;54.756;9.192;2022-12-18T04:02:00;-2.30;99.90
11540;DHT22;5826;54.756;9.192;2022-12-18T04:04:27;-2.20;99.90
11540;DHT22;5826;54.756;9.192;2022-12-18T04:06:54;-1.80;99.90
11540;DHT22;5826;54.756;9.192;2022-12-18T04:09:21;-2.20;99.90
11540;DHT22;5826;54.756;9.192;2022-12-18T04:11:47;-2.30;99.90
11540;DHT22;5826;54.756;9.192;2022-12-18T04:14:13;-2.30;99.90
11540;DHT22;5826;54.756;9.192;2022-12-18T04:16:38;-2.20;99.90
11540;DHT22;5826;54.756;9.192;2022-12-18T04:19:04;-2.20;99.90
11540;DHT22;5826;54.756;9.192;2022-12-18T04:21:30;-2.20;99.90
11540;DHT22;5826;54.756;9.192;2022-12-18T04:23:55;-2.30;99.90
11540;DHT22;5826;54.756;9.192;2022-12-18T04:26:21;-2.20;99.90
11540;DHT22;5826;54.756;9.192;2022-12-18T04:28:46;-2.20;99.90
11540;DHT22;5826;54.756;9.192;2022-12-18T04:31:13;-2.30;99.90
11540;DHT22;5826;54.756;9.192;2022-12-18T04:33:38;-2.30;99.90
11540;DHT22;5826;54.756;9.192;2022-12-18T04:36:04;-2.40;99.90
11540;DHT22;5826;54.756;9.192;2022-12-18T04:38:30;-2.40;99.90
11540;DHT22;5826;54.756;9.192;2022-12-18T04:40:55;-2.40;99.90
11540;DHT22;5826;54.756;9.192;2022-12-18T04:43:21;-2.40;99.90
11540;DHT22;5826;54.756;9.192;2022-12-18T04:45:46;-2.00;99.90
11540;DHT22;5826;54.756;9.192;2022-12-18T04:48:12;-2.30;99.90
11540;DHT22;5826;54.756;9.192;2022-12-18T04:50:37;-2.30;99.90
11540;DHT22;5826;54.756;9.192;2022-12-18T04:53:03;-2.30;99.90
11540;DHT22;5826;54.756;9.192;2022-12-18T04:55:28;-2.40;99.90
11540;DHT22;5826;54.756;9.192;2022-12-18T04:57:54;-1.70;99.90
11540;DHT22;5826;54.756;9.192;2022-12-18T05:00:20;-2.40;99.90
11540;DHT22;5826;54.756;9.192;2022-12-18T05:02:45;-2.40;99.90
11540;DHT22;5826;54.756;9.192;2022-12-18T05:05:11;-2.40;99.90
11540;DHT22;5826;54.756;9.192;2022-12-18T05:07:36;-2.40;99.90
11540;DHT22;5826;54.756;9.192;2022-12-18T05:10:03;-2.40;99.90
11540;DHT22;5826;54.756;9.192;2022-12-18T05:12:32;-2.50;99.90
11540;DHT22;5826;54.756;9.192;2022-12-18T05:14:57;-2.60;99.90
11540;DHT22;5826;54.756;9.192;2022-12-18T05:17:23;-2.60;99.90
11540;DHT22;5826;54.756;9.192;2022-12-18T05:19:48;-2.70;99.90
11540;DHT22;5826;54.756;9.192;2022-12-18T05:22:14;-2.70;99.90
11540;DHT22;5826;54.756;9.192;2022-12-18T05:24:39;-2.80;99.90
11540;DHT22;5826;54.756;9.192;2022-12-18T05:27:05;-2.80;99.90
11540;DHT22;5826;54.756;9.192;2022-12-18T05:29:30;-2.80;99.90
11540;DHT22;5826;54.756;9.192;2022-12-18T05:31:56;-2.80;99.90
11540;DHT22;5826;54.756;9.192;2022-12-18T05:34:21;-2.80;99.90
11540;DHT22;5826;54.756;9.192;2022-12-18T05:36:47;-2.80;99.90
11540;DHT22;5826;54.756;9.192;2022-12-18T05:39:12;-2.90;99.90
11540;DHT22;5826;54.756;9.192;2022-12-18T05:41:38;-2.90;99.90
11540;DHT22;5826;54.756;9.192;2022-12-18T05:44:04;-2.90;99.90
11540;DHT22;5826;54.756;9.192;2022-12-18T05:46:30;-3.00;99.90
11540;DHT22;5826;54.756;9.192;2022-12-18T05:48:59;-3.10;99.90
11540;DHT22;5826;54.756;9.192;2022-12-18T05:51:25;-3.20;99.90
11540;DHT22;5826;54.756;9.192;2022-12-18T05:53:50;-3.30;99.90
11540;DHT22;5826;54.756;9.192;2022-12-18T05:56:19;-3.40;99.90
11540;DHT22;5826;54.756;9.192;2022-12-18T05:58:45;-3.40;99.90
11540;DHT22;5826;54.756;9.192;2022-12-18T06:01:19;-3.50;99.90
11540;DHT22;5826;54.756;9.192;2022-12-18T06:03:45;-3.50;99.90
11540;DHT22;5826;54.756;9.192;2022-12-18T06:06:16;-2.80;99.90
11540;DHT22;5826;54.756;9.192;2022-12-18T06:08:42;-3.50;99.90
11540;DHT22;5826;54.756;9.192;2022-12-18T06:11:08;-3.40;99.90
11540;DHT22;5826;54.756;9.192;2022-12-18T06:13:34;-2.70;99.90
11540;DHT22;5826;54.756;9.192;2022-12-18T06:16:03;-3.40;99.90
11540;DHT22;5826;54.756;9.192;2022-12-18T06:18:28;-3.40;99.90
11540;DHT22;5826;54.756;9.192;2022-12-18T06:20:55;-3.40;99.90
11540;DHT22;5826;54.756;9.192;2022-12-18T06:23:21;-3.30;99.90
11540;DHT22;5826;54.756;9.192;2022-12-18T06:25:46;-3.30;99.90
11540;DHT22;5826;54.756;9.192;2022-12-18T06:28:12;-3.20;99.90
11540;DHT22;5826;54.756;9.192;2022-12-18T06:30:37;-3.20;99.90
11540;DHT22;5826;54.756;9.192;2022-12-18T06:33:03;-3.20;99.90
11540;DHT22;5826;54.756;9.192;2022-12-18T06:35:28;-3.10;99.90
11540;DHT22;5826;54.756;9.192;2022-12-18T06:37:54;-3.20;99.90
11540;DHT22;5826;54.756;9.192;2022-12-18T06:40:19;-3.10;99.90
11540;DHT22;5826;54.756;9.192;2022-12-18T06:42:45;-3.10;99.90
11540;DHT22;5826;54.756;9.192;2022-12-18T06:45:11;-3.10;99.90
11540;DHT22;5826;54.756;9.192;2022-12-18T06:47:36;-3.10;99.90
11540;DHT22;5826;54.756;9.192;2022-12-18T06:50:02;-3.10;99.90
11540;DHT22;5826;54.756;9.192;2022-12-18T06:52:28;-3.10;99.90
11540;DHT22;5826;54.756;9.192;2022-12-18T06:54:53;-3.10;99.90
11540;DHT22;5826;54.756;9.192;2022-12-18T06:57:19;-3.10;99.90
11540;DHT22;5826;54.756;9.192;2022-12-18T06:59:44;-3.00;99.90
11540;DHT22;5826;54.756;9.192;2022-12-18T07:02:13;-3.00;99.90
11540;DHT22;5826;54.756;9.192;2022-12-18T07:04:39;-3.00;99.90
11540;DHT22;5826;54.756;9.192;2022-12-18T07:07:05;-3.00;99.90
11540;DHT22;5826;54.756;9.192;2022-12-18T07:09:30;-3.00;99.90
11540;DHT22;5826;54.756;9.192;2022-12-18T07:11:55;-3.00;99.90
11540;DHT22;5826;54.756;9.192;2022-12-18T07:14:21;-3.00;99.90
11540;DHT22;5826;54.756;9.192;2022-12-18T07:16:47;-3.00;99.90
11540;DHT22;5826;54.756;9.192;2022-12-18T07:19:12;-3.10;99.90
11540;DHT22;5826;54.756;9.192;2022-12-18T07:21:38;-3.10;99.90
11540;DHT22;5826;54.756;9.192;2022-12-18T07:24:04;-2.40;99.90
11540;DHT22;5826;54.756;9.192;2022-12-18T07:26:29;-3.10;99.90
11540;DHT22;5826;54.756;9.192;2022-12-18T07:28:56;-3.20;99.90
11540;DHT22;5826;54.756;9.192;2022-12-18T07:31:23;-3.20;99.90
11540;DHT22;5826;54.756;9.192;2022-12-18T07:33:49;-3.20;99.90
11540;DHT22;5826;54.756;9.192;2022-12-18T07:36:15;-3.20;99.90
11540;DHT22;5826;54.756;9.192;2022-12-18T07:38:40;-3.20;99.90
11540;DHT22;5826;54.756;9.192;2022-12-18T07:41:11;-3.30;99.90
11540;DHT22;5826;54.756;9.192;2022-12-18T07:43:37;-3.30;99.90
11540;DHT22;5826;54.756;9.192;2022-12-18T07:46:03;-3.30;99.90
11540;DHT22;5826;54.756;9.192;2022-12-18T07:48:30;-3.30;99.90
11540;DHT22;5826;54.756;9.192;2022-12-18T07:50:59;-3.30;99.90
11540;DHT22;5826;54.756;9.192;2022-12-18T07:53:25;-3.40;99.90
11540;DHT22;5826;54.756;9.192;2022-12-18T07:55:58;-3.40;99.90
11540;DHT22;5826;54.756;9.192;2022-12-18T07:58:24;-3.40;99.90
11540;DHT22;5826;54.756;9.192;2022-12-18T08:00:50;-3.40;99.90
11540;DHT22;5826;54.756;9.192;2022-12-18T08:03:16;-3.50;99.90
11540;DHT22;5826;54.756;9.192;2022-12-18T08:05:41;-3.40;99.90
11540;DHT22;5826;54.756;9.192;2022-12-18T08:08:07;-3.40;99.90
11540;DHT22;5826;54.756;9.192;2022-12-18T08:10:32;-3.40;99.90
11540;DHT22;5826;54.756;9.192;2022-12-18T08:12:57;-3.40;99.90
11540;DHT22;5826;54.756;9.192;2022-12-18T08:15:23;-3.40;99.90
11540;DHT22;5826;54.756;9.192;2022-12-18T08:17:49;-3.30;99.90
11540;DHT22;5826;54.756;9.192;2022-12-18T08:20:14;-3.30;99.90
11540;DHT22;5826;54.756;9.192;2022-12-18T08:22:41;-3.30;99.90
11540;DHT22;5826;54.756;9.192;2022-12-18T08:25:07;-3.20;99.90
11540;DHT22;5826;54.756;9.192;2022-12-18T08:27:33;-3.20;99.90
11540;DHT22;5826;54.756;9.192;2022-12-18T08:29:58;-3.10;99.90
11540;DHT22;5826;54.756;9.192;2022-12-18T08:32:25;-2.50;99.90
11540;DHT22;5826;54.756;9.192;2022-12-18T08:34:51;-2.90;99.90
11540;DHT22;5826;54.756;9.192;2022-12-18T08:37:17;-2.80;99.90
11540;DHT22;5826;54.756;9.192;2022-12-18T08:39:42;-2.70;99.90
11540;DHT22;5826;54.756;9.192;2022-12-18T08:42:08;-2.70;99.90
11540;DHT22;5826;54.756;9.192;2022-12-18T08:44:52;-2.70;99.90
11540;DHT22;5826;54.756;9.192;2022-12-18T08:47:17;-2.60;99.90
11540;DHT22;5826;54.756;9.192;2022-12-18T08:49:43;-2.50;99.90
11540;DHT22;5826;54.756;9.192;2022-12-18T08:52:09;-2.50;99.90
11540;DHT22;5826;54.756;9.192;2022-12-18T08:54:34;-2.40;99.90
11540;DHT22;5826;54.756;9.192;2022-12-18T08:57:00;-2.30;99.90
11540;DHT22;5826;54.756;9.192;2022-12-18T08:59:25;-2.20;99.90
11540;DHT22;5826;54.756;9.192;2022-12-18T09:01:54;-2.10;99.90
11540;DHT22;5826;54.756;9.192;2022-12-18T09:04:20;-2.10;99.90
11540;DHT22;5826;54.756;9.192;2022-12-18T09:06:46;-1.30;99.90
11540;DHT22;5826;54.756;9.192;2022-12-18T09:09:11;-1.50;99.90
11540;DHT22;5826;54.756;9.192;2022-12-18T09:11:37;-1.90;99.90
11540;DHT22;5826;54.756;9.192;2022-12-18T09:14:02;-1.90;99.90
11540;DHT22;5826;54.756;9.192;2022-12-18T09:16:28;-1.80;99.90
11540;DHT22;5826;54.756;9.192;2022-12-18T09:18:55;-1.80;99.90
11540;DHT22;5826;54.756;9.192;2022-12-18T09:21:26;-1.50;99.90
11540;DHT22;5826;54.756;9.192;2022-12-18T09:23:53;-1.80;99.90
11540;DHT22;5826;54.756;9.192;2022-12-18T09:26:20;-1.70;99.90
11540;DHT22;5826;54.756;9.192;2022-12-18T09:28:46;-1.70;99.90
11540;DHT22;5826;54.756;9.192;2022-12-18T09:31:12;-1.70;99.90
11540;DHT22;5826;54.756;9.192;2022-12-18T09:33:41;-1.60;99.90
11540;DHT22;5826;54.756;9.192;2022-12-18T09:36:09;-1.60;99.90
11540;DHT22;5826;54.756;9.192;2022-12-18T09:38:36;-1.50;99.90
11540;DHT22;5826;54.756;9.192;2022-12-18T09:43:55;-1.60;99.90
11540;DHT22;5826;54.756;9.192;2022-12-18T09:46:29;-1.50;99.90
11540;DHT22;5826;54.756;9.192;2022-12-18T09:48:59;-1.50;99.90
11540;DHT22;5826;54.756;9.192;2022-12-18T09:51:44;-1.50;99.90
11540;DHT22;5826;54.756;9.192;2022-12-18T09:54:23;-1.60;99.90
11540;DHT22;5826;54.756;9.192;2022-12-18T09:56:50;-1.50;99.90
11540;DHT22;5826;54.756;9.192;2022-12-18T09:59:25;-1.60;99.90
11540;DHT22;5826;54.756;9.192;2022-12-18T10:01:52;-1.50;99.90
11540;DHT22;5826;54.756;9.192;2022-12-18T10:04:18;-1.40;99.90
11540;DHT22;5826;54.756;9.192;2022-12-18T10:07:01;-1.30;99.90
11540;DHT22;5826;54.756;9.192;2022-12-18T10:09:37;-1.10;99.90
11540;DHT22;5826;54.756;9.192;2022-12-18T10:12:24;-1.00;99.90
11540;DHT22;5826;54.756;9.192;2022-12-18T10:15:27;-0.90;99.90
11540;DHT22;5826;54.756;9.192;2022-12-18T10:20:36;-0.90;99.90
11540;DHT22;5826;54.756;9.192;2022-12-18T10:26:06;-0.90;99.90
11540;DHT22;5826;54.756;9.192;2022-12-18T10:28:33;-0.90;99.90
11540;DHT22;5826;54.756;9.192;2022-12-18T10:31:15;-0.20;99.90
11540;DHT22;5826;54.756;9.192;2022-12-18T10:33:42;-0.80;99.90
11540;DHT22;5826;54.756;9.192;2022-12-18T10:36:08;-0.90;99.90
11540;DHT22;5826;54.756;9.192;2022-12-18T10:38:34;-0.80;99.90
11540;DHT22;5826;54.756;9.192;2022-12-18T10:44:20;-0.70;99.90
11540;DHT22;5826;54.756;9.192;2022-12-18T10:46:49;-0.60;99.90
11540;DHT22;5826;54.756;9.192;2022-12-18T10:52:38;-0.60;99.90
11540;DHT22;5826;54.756;9.192;2022-12-18T10:55:04;-0.40;99.90
11540;DHT22;5826;54.756;9.192;2022-12-18T10:57:33;-0.60;99.90
11540;DHT22;5826;54.756;9.192;2022-12-18T11:02:46;-0.50;99.90
11540;DHT22;5826;54.756;9.192;2022-12-18T11:07:55;-0.30;99.90
11540;DHT22;5826;54.756;9.192;2022-12-18T11:10:44;-0.30;99.90
11540;DHT22;5826;54.756;9.192;2022-12-18T11:13:11;-0.20;99.90
11540;DHT22;5826;54.756;9.192;2022-12-18T11:15:37;-0.20;99.90
11540;DHT22;5826;54.756;9.192;2022-12-18T11:18:05;0.10;99.90
11540;DHT22;5826;54.756;9.192;2022-12-18T11:20:36;0.40;99.90
11540;DHT22;5826;54.756;9.192;2022-12-18T11:23:11;-0.10;99.90
11540;DHT22;5826;54.756;9.192;2022-12-18T11:25:38;-0.10;99.90
11540;DHT22;5826;54.756;9.192;2022-12-18T11:28:25;-0.10;99.90
11540;DHT22;5826;54.756;9.192;2022-12-18T11:30:49;0.00;99.90
11540;DHT22;5826;54.756;9.192;2022-12-18T11:33:33;0.00;99.90
11540;DHT22;5826;54.756;9.192;2022-12-18T11:36:01;0.00;99.90
11540;DHT22;5826;54.756;9.192;2022-12-18T11:38:39;0.40;99.90
11540;DHT22;5826;54.756;9.192;2022-12-18T11:41:24;0.10;99.90
11540;DHT22;5826;54.756;9.192;2022-12-18T11:44:23;0.20;99.90
11540;DHT22;5826;54.756;9.192;2022-12-18T11:46:55;0.20;99.90
11540;DHT22;5826;54.756;9.192;2022-12-18T11:49:33;0.30;99.90
11540;DHT22;5826;54.756;9.192;2022-12-18T11:52:22;0.30;99.90
11540;DHT22;5826;54.756;9.192;2022-12-18T11:54:51;0.30;99.90
11540;DHT22;5826;54.756;9.192;2022-12-18T11:59:56;0.30;99.90
11540;DHT22;5826;54.756;9.192;2022-12-18T12:02:49;0.30;99.90
11540;DHT22;5826;54.756;9.192;2022-12-18T12:05:46;0.30;99.90
11540;DHT22;5826;54.756;9.192;2022-12-18T12:16:59;0.10;99.90
11540;DHT22;5826;54.756;9.192;2022-12-18T12:19:33;0.10;99.90
11540;DHT22;5826;54.756;9.192;2022-12-18T12:22:18;0.00;99.90
11540;DHT22;5826;54.756;9.192;2022-12-18T12:25:01;0.00;99.90
11540;DHT22;5826;54.756;9.192;2022-12-18T12:30:05;-0.10;99.90
11540;DHT22;5826;54.756;9.192;2022-12-18T12:33:00;-0.10;99.90
11540;DHT22;5826;54.756;9.192;2022-12-18T12:35:48;-0.10;99.90
11540;DHT22;5826;54.756;9.192;2022-12-18T12:38:37;0.40;99.90
11540;DHT22;5826;54.756;9.192;2022-12-18T12:41:08;0.10;99.90
11540;DHT22;5826;54.756;9.192;2022-12-18T12:43:57;-0.10;99.90
11540;DHT22;5826;54.756;9.192;2022-12-18T12:46:24;-0.10;99.90
11540;DHT22;5826;54.756;9.192;2022-12-18T12:48:56;-0.10;99.90
11540;DHT22;5826;54.756;9.192;2022-12-18T12:51:28;-0.10;99.90
11540;DHT22;5826;54.756;9.192;2022-12-18T12:53:56;0.00;99.90
11540;DHT22;5826;54.756;9.192;2022-12-18T12:56:26;0.00;99.90
11540;DHT22;5826;54.756;9.192;2022-12-18T12:59:15;0.00;99.90
11540;DHT22;5826;54.756;9.192;2022-12-18T13:08:05;0.40;99.90
11540;DHT22;5826;54.756;9.192;2022-12-18T13:10:39;0.50;99.90
11540;DHT22;5826;54.756;9.192;2022-12-18T13:15:34;1.00;99.90
11540;DHT22;5826;54.756;9.192;2022-12-18T13:20:39;0.80;99.90
11540;DHT22;5826;54.756;9.192;2022-12-18T13:23:29;0.80;99.90
11540;DHT22;5826;54.756;9.192;2022-12-18T13:25:58;0.80;99.90
11540;DHT22;5826;54.756;9.192;2022-12-18T13:30:59;0.80;99.90
11540;DHT22;5826;54.756;9.192;2022-12-18T13:36:00;0.60;99.90
11540;DHT22;5826;54.756;9.192;2022-12-18T13:40:55;0.60;99.90
11540;DHT22;5826;54.756;9.192;2022-12-18T13:48:26;0.50;99.90
11540;DHT22;5826;54.756;9.192;2022-12-18T13:50:55;0.40;99.90
11540;DHT22;5826;54.756;9.192;2022-12-18T13:53:27;0.30;99.90
11540;DHT22;5826;54.756;9.192;2022-12-18T13:55:53;0.30;99.90
11540;DHT22;5826;54.756;9.192;2022-12-18T13:58:18;0.70;99.90
11540;DHT22;5826;54.756;9.192;2022-12-18T14:00:44;0.10;99.90
11540;DHT22;5826;54.756;9.192;2022-12-18T14:03:22;0.40;99.90
11540;DHT22;5826;54.756;9.192;2022-12-18T14:05:54;0.20;99.90
11540;DHT22;5826;54.756;9.192;2022-12-18T14:08:20;-0.20;99.90
11540;DHT22;5826;54.756;9.192;2022-12-18T14:10:47;-0.30;99.90
11540;DHT22;5826;54.756;9.192;2022-12-18T14:13:35;-0.40;99.90
11540;DHT22;5826;54.756;9.192;2022-12-18T14:16:03;-0.50;99.90
11540;DHT22;5826;54.756;9.192;2022-12-18T14:21:03;-0.60;99.90
11540;DHT22;5826;54.756;9.192;2022-12-18T14:23:32;-0.70;99.90
11540;DHT22;5826;54.756;9.192;2022-12-18T14:25:58;-0.80;99.90
11540;DHT22;5826;54.756;9.192;2022-12-18T14:28:24;-0.40;99.90
11540;DHT22;5826;54.756;9.192;2022-12-18T14:30:52;-0.90;99.90
11540;DHT22;5826;54.756;9.192;2022-12-18T14:33:21;-1.00;99.90
11540;DHT22;5826;54.756;9.192;2022-12-18T14:38:39;-1.10;99.90
11540;DHT22;5826;54.756;9.192;2022-12-18T14:41:11;-1.10;99.90
11540;DHT22;5826;54.756;9.192;2022-12-18T14:43:40;-1.20;99.90
11540;DHT22;5826;54.756;9.192;2022-12-18T14:48:54;-1.20;99.90
11540;DHT22;5826;54.756;9.192;2022-12-18T14:51:25;-1.20;99.90
11540;DHT22;5826;54.756;9.192;2022-12-18T14:56:22;-1.30;99.90
11540;DHT22;5826;54.756;9.192;2022-12-18T15:01:56;-1.30;99.90
11540;DHT22;5826;54.756;9.192;2022-12-18T15:04:29;-1.30;99.90
11540;DHT22;5826;54.756;9.192;2022-12-18T15:07:16;-1.40;99.90
11540;DHT22;5826;54.756;9.192;2022-12-18T15:09:44;-1.30;99.90
11540;DHT22;5826;54.756;9.192;2022-12-18T15:12:40;-1.40;99.90
11540;DHT22;5826;54.756;9.192;2022-12-18T15:20:39;-0.80;99.90
11540;DHT22;5826;54.756;9.192;2022-12-18T15:25:43;-1.40;99.90
11540;DHT22;5826;54.756;9.192;2022-12-18T15:28:25;-1.40;99.90
11540;DHT22;5826;54.756;9.192;2022-12-18T15:33:41;-1.40;99.90
11540;DHT22;5826;54.756;9.192;2022-12-18T15:36:13;-1.40;99.90
11540;DHT22;5826;54.756;9.192;2022-12-18T15:38:39;-1.40;99.90
11540;DHT22;5826;54.756;9.192;2022-12-18T15:41:04;-1.40;99.90
11540;DHT22;5826;54.756;9.192;2022-12-18T15:43:33;-1.50;99.90
11540;DHT22;5826;54.756;9.192;2022-12-18T15:46:09;-1.50;99.90
11540;DHT22;5826;54.756;9.192;2022-12-18T15:48:50;-1.50;99.90
11540;DHT22;5826;54.756;9.192;2022-12-18T15:51:24;-1.50;99.90
11540;DHT22;5826;54.756;9.192;2022-12-18T15:53:53;-1.50;99.90
11540;DHT22;5826;54.756;9.192;2022-12-18T15:56:20;-1.50;99.90
11540;DHT22;5826;54.756;9.192;2022-12-18T15:59:10;-1.50;99.90
11540;DHT22;5826;54.756;9.192;2022-12-18T16:01:36;-1.50;99.90
11540;DHT22;5826;54.756;9.192;2022-12-18T16:04:01;-1.50;99.90
11540;DHT22;5826;54.756;9.192;2022-12-18T16:06:27;-1.50;99.90
11540;DHT22;5826;54.756;9.192;2022-12-18T16:08:52;-0.90;99.90
11540;DHT22;5826;54.756;9.192;2022-12-18T16:11:24;-1.50;99.90
11540;DHT22;5826;54.756;9.192;2022-12-18T16:14:27;-1.50;99.90
11540;DHT22;5826;54.756;9.192;2022-12-18T16:16:58;-1.50;99.90
11540;DHT22;5826;54.756;9.192;2022-12-18T16:19:24;-1.60;99.90
11540;DHT22;5826;54.756;9.192;2022-12-18T16:21:52;-1.60;99.90
11540;DHT22;5826;54.756;9.192;2022-12-18T16:24:22;-1.40;99.90
11540;DHT22;5826;54.756;9.192;2022-12-18T16:26:49;-1.60;99.90
11540;DHT22;5826;54.756;9.192;2022-12-18T16:29:16;-1.50;99.90
11540;DHT22;5826;54.756;9.192;2022-12-18T16:31:42;-1.50;99.90
11540;DHT22;5826;54.756;9.192;2022-12-18T16:36:42;-1.50;99.90
11540;DHT22;5826;54.756;9.192;2022-12-18T16:39:08;-1.50;99.90
11540;DHT22;5826;54.756;9.192;2022-12-18T16:41:33;-1.50;99.90
11540;DHT22;5826;54.756;9.192;2022-12-18T16:44:00;-1.40;99.90
11540;DHT22;5826;54.756;9.192;2022-12-18T16:46:26;-1.40;99.90
11540;DHT22;5826;54.756;9.192;2022-12-18T16:48:51;-1.40;99.90
11540;DHT22;5826;54.756;9.192;2022-12-18T16:51:18;-1.40;99.90
11540;DHT22;5826;54.756;9.192;2022-12-18T16:53:43;-1.40;99.90
11540;DHT22;5826;54.756;9.192;2022-12-18T16:56:09;-1.30;99.90
11540;DHT22;5826;54.756;9.192;2022-12-18T16:58:35;-1.30;99.90
11540;DHT22;5826;54.756;9.192;2022-12-18T17:01:00;-1.30;99.90
11540;DHT22;5826;54.756;9.192;2022-12-18T17:03:26;-1.20;99.90
11540;DHT22;5826;54.756;9.192;2022-12-18T17:05:51;-1.20;99.90
11540;DHT22;5826;54.756;9.192;2022-12-18T17:08:17;-1.20;99.90
11540;DHT22;5826;54.756;9.192;2022-12-18T17:10:42;-1.10;99.90
11540;DHT22;5826;54.756;9.192;2022-12-18T17:13:07;-1.10;99.90
11540;DHT22;5826;54.756;9.192;2022-12-18T17:15:36;-1.20;99.90
11540;DHT22;5826;54.756;9.192;2022-12-18T17:18:02;-1.10;99.90
11540;DHT22;5826;54.756;9.192;2022-12-18T17:20:29;-1.10;99.90
11540;DHT22;5826;54.756;9.192;2022-12-18T17:22:55;-1.10;99.90
11540;DHT22;5826;54.756;9.192;2022-12-18T17:25:23;-1.10;99.90
11540;DHT22;5826;54.756;9.192;2022-12-18T17:27:50;-1.00;99.90
11540;DHT22;5826;54.756;9.192;2022-12-18T17:30:15;-1.00;99.90
11540;DHT22;5826;54.756;9.192;2022-12-18T17:32:41;-1.00;99.90
11540;DHT22;5826;54.756;9.192;2022-12-18T17:35:06;-0.90;99.90
11540;DHT22;5826;54.756;9.192;2022-12-18T17:37:32;-0.90;99.90
11540;DHT22;5826;54.756;9.192;2022-12-18T17:39:57;-0.90;99.90
11540;DHT22;5826;54.756;9.192;2022-12-18T17:42:23;-0.90;99.90
11540;DHT22;5826;54.756;9.192;2022-12-18T17:44:48;-0.90;99.90
11540;DHT22;5826;54.756;9.192;2022-12-18T17:47:14;-0.90;99.90
11540;DHT22;5826;54.756;9.192;2022-12-18T17:49:39;-0.40;99.90
11540;DHT22;5826;54.756;9.192;2022-12-18T17:52:05;-0.80;99.90